createdAt,value
2022-11-16T00:02:40.940Z,4.20
2022-11-16T00:06:42.490Z,3.72
2022-11-16T00:10:43.917Z,3.38
2022-11-16T00:14:45.421Z,3.10
2022-11-16T00:18:46.819Z,3.88
2022-11-16T00:22:48.367Z,3.78
2022-11-16T00:26:51.076Z,3.90
2022-11-16T00:31:12.668Z,3.80
2022-11-16T00:35:39.938Z,3.13
2022-11-16T00:40:01.401Z,2.83
2022-11-16T00:44:22.847Z,3.40
2022-11-16T00:48:44.400Z,3.28
2022-11-16T00:53:07.309Z,3.50
2022-11-16T00:57:28.688Z,3.80
2022-11-16T01:01:50.376Z,3.25
2022-11-16T01:06:14.011Z,2.72
2022-11-16T01:10:41.135Z,2.13
2022-11-16T01:15:09.000Z,2.85
2022-11-16T01:19:30.612Z,3.15
2022-11-16T01:23:52.465Z,2.78
2022-11-16T01:28:13.859Z,4.22
2022-11-16T01:32:44.128Z,2.65
2022-11-16T01:37:05.810Z,4.40
2022-11-16T01:41:31.758Z,2.28
2022-11-16T01:45:55.683Z,3.40
2022-11-16T01:50:18.891Z,3.03
2022-11-16T01:54:46.379Z,2.15
2022-11-16T01:59:08.357Z,3.58
2022-11-16T02:03:30.132Z,3.78
2022-11-16T02:08:41.632Z,4.00
2022-11-16T02:18:11.282Z,2.40
2022-11-16T02:23:00.341Z,2.83
2022-11-16T02:27:50.810Z,2.30
2022-11-16T02:32:26.437Z,3.45
2022-11-16T02:36:52.921Z,2.85
2022-11-16T02:41:19.836Z,3.72
2022-11-16T02:45:48.377Z,2.95
2022-11-16T02:50:16.137Z,3.92
2022-11-16T02:54:37.590Z,3.25
2022-11-16T02:59:00.151Z,3.40
2022-11-16T03:03:52.439Z,3.55
2022-11-16T03:08:35.229Z,3.92
2022-11-16T03:13:01.888Z,3.42
2022-11-16T03:17:29.485Z,3.38
2022-11-16T03:22:01.075Z,2.97
2022-11-16T03:26:29.749Z,1.92
2022-11-16T03:31:13.279Z,3.78
2022-11-16T03:35:59.530Z,2.60
2022-11-16T03:40:24.170Z,4.25
2022-11-16T03:44:49.137Z,3.25
2022-11-16T03:49:10.563Z,2.70
2022-11-16T03:53:32.658Z,3.17
2022-11-16T03:57:54.122Z,3.47
2022-11-16T04:02:16.081Z,3.47
2022-11-16T04:06:56.646Z,3.85
2022-11-16T04:11:40.621Z,3.47
2022-11-16T04:16:21.832Z,3.25
2022-11-16T04:21:03.069Z,4.55
2022-11-16T04:25:30.560Z,2.55
2022-11-16T04:29:53.328Z,3.67
2022-11-16T04:34:33.380Z,3.90
2022-11-16T04:38:55.173Z,3.60
2022-11-16T04:43:17.801Z,4.00
2022-11-16T04:47:40.011Z,3.58
2022-11-16T04:52:02.121Z,3.03
2022-11-16T04:56:25.785Z,3.45
2022-11-16T05:00:47.717Z,2.83
2022-11-16T05:05:09.979Z,1.60
2022-11-16T05:09:34.338Z,2.42
2022-11-16T05:13:55.928Z,2.17
2022-11-16T05:18:17.643Z,1.98
2022-11-16T05:22:39.469Z,3.50
2022-11-16T05:26:41.279Z,2.38
2022-11-16T05:30:45.632Z,2.78
2022-11-16T05:34:50.004Z,2.85
2022-11-16T05:38:56.121Z,2.63
2022-11-16T05:43:00.192Z,2.75
2022-11-16T05:47:05.970Z,2.80
2022-11-16T05:51:08.641Z,2.65
2022-11-16T05:55:10.319Z,2.65
2022-11-16T05:59:18.978Z,2.20
2022-11-16T06:03:23.086Z,2.67
2022-11-16T06:07:24.621Z,3.10
2022-11-16T06:11:28.284Z,2.25
2022-11-16T06:15:38.189Z,1.90
2022-11-16T06:19:41.770Z,2.13
2022-11-16T06:23:43.655Z,2.25
2022-11-16T06:27:45.354Z,2.17
2022-11-16T06:31:50.521Z,2.05
2022-11-16T06:35:52.170Z,2.08
2022-11-16T06:39:57.194Z,2.28
2022-11-16T06:43:58.743Z,1.60
2022-11-16T06:48:05.952Z,1.58
2022-11-16T06:52:07.609Z,1.98
2022-11-16T06:56:13.722Z,1.80
2022-11-16T07:00:20.098Z,1.73
2022-11-16T07:04:24.048Z,1.52
2022-11-16T07:08:30.025Z,2.45
2022-11-16T07:12:31.911Z,1.50
2022-11-16T07:16:36.267Z,1.58
2022-11-16T07:20:38.870Z,1.38
2022-11-16T07:24:40.471Z,1.65
2022-11-16T07:28:47.867Z,1.25
2022-11-16T07:32:51.814Z,1.90
2022-11-16T07:37:12.036Z,1.27
2022-11-16T07:41:17.801Z,1.38
2022-11-16T07:45:25.896Z,1.60
2022-11-16T07:49:32.402Z,1.15
2022-11-16T07:53:39.671Z,1.00
2022-11-16T07:57:41.437Z,0.98
2022-11-16T08:01:46.875Z,0.77
2022-11-16T08:05:48.866Z,1.50
2022-11-16T08:09:50.431Z,1.02
2022-11-16T08:13:52.215Z,1.67
2022-11-16T08:17:54.863Z,1.05
2022-11-16T08:21:56.373Z,1.10
2022-11-16T08:26:00.850Z,1.48
2022-11-16T08:30:04.717Z,1.15
2022-11-16T08:34:07.028Z,1.23
2022-11-16T08:38:10.362Z,1.08
2022-11-16T08:42:11.864Z,1.38
2022-11-16T08:46:17.536Z,0.80
2022-11-16T08:50:24.309Z,1.08
2022-11-16T08:54:28.731Z,1.25
2022-11-16T08:58:31.370Z,1.33
2022-11-16T09:02:33.163Z,1.13
2022-11-16T09:06:35.725Z,0.80
2022-11-16T09:10:37.646Z,0.70
2022-11-16T09:14:39.230Z,0.73
2022-11-16T09:18:40.651Z,0.50
2022-11-16T09:22:42.117Z,0.70
2022-11-16T09:26:43.584Z,0.47
2022-11-16T09:30:48.027Z,1.30
2022-11-16T09:34:49.444Z,0.73
2022-11-16T09:43:46.145Z,0.52
2022-11-16T09:47:59.347Z,0.50
2022-11-16T09:52:06.165Z,0.80
2022-11-16T09:56:14.509Z,1.15
2022-11-16T10:00:24.884Z,1.00
2022-11-16T10:04:58.677Z,1.02
2022-11-16T10:09:00.403Z,0.57
2022-11-16T10:13:23.789Z,0.90
2022-11-16T10:17:37.361Z,0.45
2022-11-16T10:22:08.264Z,0.95
2022-11-16T10:26:32.011Z,0.68
2022-11-16T10:30:43.159Z,1.02
2022-11-16T10:35:00.013Z,0.98
2022-11-16T10:39:02.567Z,1.05
2022-11-16T10:43:23.786Z,0.73
2022-11-16T10:47:36.629Z,1.33
2022-11-16T10:51:38.151Z,1.23
2022-11-16T10:55:39.566Z,1.27
2022-11-16T10:59:44.565Z,1.20
2022-11-16T11:03:45.979Z,0.88
2022-11-16T11:07:59.855Z,0.55
2022-11-16T11:12:35.189Z,1.08
2022-11-16T11:16:37.914Z,1.80
2022-11-16T11:20:44.808Z,1.40
2022-11-16T11:24:48.530Z,1.40
2022-11-16T11:28:50.111Z,2.05
2022-11-16T11:32:52.884Z,1.95
2022-11-16T11:37:01.867Z,1.55
2022-11-16T11:41:05.205Z,1.65
2022-11-16T11:45:13.037Z,1.83
2022-11-16T11:49:23.616Z,1.23
2022-11-16T11:53:50.155Z,1.10
2022-11-16T11:57:53.711Z,1.17
2022-11-16T12:02:16.228Z,1.27
2022-11-16T12:06:43.603Z,1.20
2022-11-16T12:10:52.568Z,2.03
2022-11-16T12:15:05.309Z,1.08
2022-11-16T12:19:25.244Z,1.67
2022-11-16T12:23:54.758Z,2.00
2022-11-16T12:28:15.993Z,1.48
2022-11-16T12:32:23.736Z,1.25
2022-11-16T12:36:40.144Z,1.48
2022-11-16T12:40:58.858Z,1.30
2022-11-16T12:45:06.377Z,1.23
2022-11-16T12:49:27.239Z,2.42
2022-11-16T12:53:51.434Z,1.00
2022-11-16T12:58:11.932Z,1.52
2022-11-16T13:02:51.151Z,2.42
2022-11-16T13:07:10.973Z,1.40
2022-11-16T13:11:22.241Z,1.35
2022-11-16T13:15:33.539Z,2.17
2022-11-16T13:19:41.887Z,1.38
2022-11-16T13:23:53.850Z,1.48
2022-11-16T13:28:08.634Z,1.55
2022-11-16T13:32:21.175Z,0.65
2022-11-16T13:36:39.226Z,1.42
2022-11-16T13:40:41.152Z,1.13
2022-11-16T13:44:45.191Z,1.80
2022-11-16T13:48:51.230Z,1.40
2022-11-16T13:53:57.665Z,1.33
2022-11-16T13:57:33.742Z,0.98
2022-11-16T14:01:55.059Z,1.30
2022-11-16T14:05:57.500Z,1.02
2022-11-16T14:09:59.363Z,1.23
2022-11-16T14:14:33.994Z,0.82
2022-11-16T14:18:37.155Z,1.05
2022-11-16T14:22:50.543Z,0.60
2022-11-16T14:27:13.442Z,1.23
2022-11-16T14:31:22.820Z,1.25
2022-11-16T14:35:34.929Z,1.10
2022-11-16T14:39:43.353Z,1.05
2022-11-16T14:43:50.301Z,1.25
2022-11-16T14:47:55.419Z,1.50
2022-11-16T14:52:00.714Z,1.40
2022-11-16T14:56:20.471Z,1.58
2022-11-16T15:00:25.536Z,1.48
2022-11-16T15:04:27.583Z,1.60
2022-11-16T15:08:38.479Z,1.58
2022-11-16T15:12:42.361Z,1.83
2022-11-16T15:16:55.092Z,1.60
2022-11-16T15:20:56.571Z,1.60
2022-11-16T15:25:00.548Z,1.90
2022-11-16T15:29:02.040Z,1.63
2022-11-16T15:33:10.367Z,0.82
2022-11-16T15:37:12.390Z,1.45
2022-11-16T15:41:16.174Z,1.20
2022-11-16T15:45:22.376Z,1.33
2022-11-16T15:49:33.038Z,1.02
2022-11-16T15:53:48.883Z,1.98
2022-11-16T15:58:25.704Z,1.00
2022-11-16T16:02:30.188Z,1.02
2022-11-16T16:06:57.059Z,1.48
2022-11-16T16:11:05.185Z,1.15
2022-11-16T16:15:31.060Z,1.38
2022-11-16T16:19:36.104Z,1.50
2022-11-16T16:23:53.781Z,1.17
2022-11-16T16:27:55.556Z,1.42
2022-11-16T16:31:57.153Z,1.15
2022-11-16T16:35:58.642Z,0.70
2022-11-16T16:40:00.281Z,1.48
2022-11-16T16:44:01.765Z,0.82
2022-11-16T16:48:03.310Z,0.88
2022-11-16T16:52:05.474Z,0.93
2022-11-16T16:56:14.522Z,1.45
2022-11-16T17:00:16.719Z,0.77
2022-11-16T17:04:18.438Z,1.08
2022-11-16T17:08:19.908Z,1.02
2022-11-16T17:12:21.385Z,0.80
2022-11-16T17:16:23.136Z,1.40
2022-11-16T17:20:24.748Z,0.90
2022-11-16T17:24:26.245Z,1.17
2022-11-16T17:28:27.932Z,1.70
2022-11-16T17:32:32.222Z,0.90
2022-11-16T17:36:33.783Z,0.60
2022-11-16T17:40:35.265Z,0.90
2022-11-16T17:44:36.733Z,1.10
2022-11-16T17:48:39.817Z,0.75
2022-11-16T17:52:41.288Z,0.60
2022-11-16T17:56:42.792Z,1.13
2022-11-16T18:00:44.316Z,0.73
2022-11-16T18:04:50.899Z,0.57
2022-11-16T18:08:53.514Z,0.40
2022-11-16T18:12:54.989Z,0.50
2022-11-16T18:16:56.473Z,0.65
2022-11-16T18:21:02.169Z,0.47
2022-11-16T18:25:03.859Z,0.60
2022-11-16T18:29:06.619Z,0.50
2022-11-16T18:33:08.408Z,0.50
2022-11-16T18:37:09.871Z,0.63
2022-11-16T18:41:11.256Z,0.40
2022-11-16T18:45:12.794Z,0.38
2022-11-16T18:49:14.249Z,0.60
2022-11-16T18:53:15.710Z,0.55
2022-11-16T18:57:17.143Z,0.60
2022-11-16T19:01:20.703Z,0.52
2022-11-16T19:05:22.228Z,0.43
2022-11-16T19:09:23.717Z,0.50
2022-11-16T19:13:25.124Z,0.60
2022-11-16T19:17:26.986Z,0.68
2022-11-16T19:21:29.021Z,0.65
2022-11-16T19:25:30.459Z,0.68
2022-11-16T19:29:31.880Z,0.47
2022-11-16T19:33:33.690Z,0.35
2022-11-16T19:37:35.488Z,0.55
2022-11-16T19:41:36.888Z,0.55
2022-11-16T19:45:38.353Z,0.57
2022-11-16T19:49:39.808Z,0.70
2022-11-16T19:53:41.726Z,0.55
2022-11-16T19:57:43.162Z,0.75
2022-11-16T20:01:44.719Z,0.73
2022-11-16T20:05:46.146Z,0.60
2022-11-16T20:09:53.071Z,0.75
2022-11-16T20:13:56.663Z,0.73
2022-11-16T20:17:58.129Z,0.57
2022-11-16T20:21:59.868Z,0.73
2022-11-16T20:26:09.372Z,0.98
2022-11-16T20:30:11.387Z,0.50
2022-11-16T20:34:14.973Z,0.57
2022-11-16T20:38:16.384Z,0.68
2022-11-16T20:42:19.069Z,0.80
2022-11-16T20:46:22.621Z,0.88
2022-11-16T20:50:24.095Z,0.65
2022-11-16T20:54:25.568Z,0.80
2022-11-16T20:58:26.985Z,0.68
2022-11-16T21:02:28.639Z,0.93
2022-11-16T21:06:30.800Z,0.60
2022-11-16T21:10:35.338Z,0.70
2022-11-16T21:14:36.800Z,0.40
2022-11-16T21:18:39.369Z,0.98
2022-11-16T21:22:40.802Z,0.80
2022-11-16T21:26:42.253Z,0.68
2022-11-16T21:30:55.120Z,1.08
2022-11-16T21:34:56.559Z,0.70
2022-11-16T21:38:58.956Z,1.33
2022-11-16T21:43:00.424Z,1.08
2022-11-16T21:47:01.851Z,0.63
2022-11-16T21:51:05.848Z,0.70
2022-11-16T21:55:07.646Z,0.88
2022-11-16T21:59:09.109Z,0.82
2022-11-16T22:03:10.509Z,0.73
2022-11-16T22:07:34.095Z,0.75
2022-11-16T22:11:35.533Z,0.80
2022-11-16T22:15:37.004Z,0.63
2022-11-16T22:19:38.425Z,0.65
2022-11-16T22:23:40.307Z,0.55
2022-11-16T22:27:58.698Z,0.50
2022-11-16T22:32:03.769Z,1.05
2022-11-16T22:36:08.195Z,0.80
2022-11-16T22:40:13.599Z,0.98
2022-11-16T22:44:18.011Z,0.70
2022-11-16T22:48:19.469Z,0.75
2022-11-16T22:52:20.935Z,0.80
2022-11-16T22:56:23.219Z,0.75
2022-11-16T23:00:24.662Z,0.63
2022-11-16T23:04:26.331Z,0.88
2022-11-16T23:08:28.030Z,0.68
2022-11-16T23:12:48.469Z,0.57
2022-11-16T23:16:50.242Z,0.93
2022-11-16T23:21:10.451Z,0.68
2022-11-16T23:29:34.381Z,0.60
2022-11-16T23:33:44.478Z,0.70
2022-11-16T23:38:00.112Z,0.70
2022-11-16T23:42:20.096Z,0.85
2022-11-16T23:46:21.508Z,0.93
2022-11-16T23:50:23.088Z,0.80
2022-11-16T23:54:24.536Z,0.63
2022-11-16T23:58:25.926Z,0.70
